createdAt,value
2018-08-03T00:00:33.851Z,101638.03
2018-08-03T00:03:02.650Z,101639.17
2018-08-03T00:05:32.507Z,101637.09
2018-08-03T00:08:02.069Z,101633.30
2018-08-03T00:10:30.680Z,101630.05
2018-08-03T00:12:59.195Z,101619.57
2018-08-03T00:15:27.740Z,101617.97
2018-08-03T00:17:56.343Z,101620.34
2018-08-03T00:20:25.096Z,101621.13
2018-08-03T00:22:54.366Z,101624.10
2018-08-03T00:25:22.954Z,101628.77
2018-08-03T00:27:51.656Z,101623.63
2018-08-03T00:30:20.296Z,101624.59
2018-08-03T00:32:48.882Z,101628.80
2018-08-03T00:35:17.490Z,101628.02
2018-08-03T00:37:46.030Z,101624.12
2018-08-03T00:40:14.654Z,101624.72
2018-08-03T00:42:43.206Z,101629.19
2018-08-03T00:45:11.799Z,101626.25
2018-08-03T00:47:40.377Z,101622.91
2018-08-03T00:50:08.999Z,101630.14
2018-08-03T00:52:37.674Z,101628.44
2018-08-03T00:55:06.666Z,101635.67
2018-08-03T00:57:36.028Z,101639.30
2018-08-03T01:00:04.973Z,101633.97
2018-08-03T01:02:33.602Z,101639.50
2018-08-03T01:05:02.186Z,101639.69
2018-08-03T01:07:30.712Z,101630.17
2018-08-03T01:10:00.171Z,101633.00
2018-08-03T01:12:28.712Z,101632.79
2018-08-03T01:14:57.337Z,101636.05
2018-08-03T01:17:26.026Z,101641.95
2018-08-03T01:19:54.705Z,101642.14
2018-08-03T01:22:23.709Z,101647.09
2018-08-03T01:24:52.504Z,101645.40
2018-08-03T01:27:21.126Z,101642.73
2018-08-03T01:29:49.751Z,101642.63
2018-08-03T01:32:18.486Z,101648.80
2018-08-03T01:34:47.078Z,101647.88
2018-08-03T01:37:15.705Z,101641.77
2018-08-03T01:39:44.334Z,101641.39
2018-08-03T01:42:12.903Z,101640.16
2018-08-03T01:44:41.558Z,101645.59
2018-08-03T01:47:10.348Z,101646.52
2018-08-03T01:49:39.029Z,101640.03
2018-08-03T01:52:07.551Z,101637.96
2018-08-03T01:54:36.195Z,101638.98
2018-08-03T01:57:04.760Z,101636.41
2018-08-03T01:59:33.361Z,101632.13
2018-08-03T02:02:01.886Z,101635.67
2018-08-03T02:04:30.528Z,101639.27
2018-08-03T02:06:59.153Z,101641.28
2018-08-03T02:09:27.796Z,101649.94
2018-08-03T02:11:56.480Z,101649.75
2018-08-03T02:14:25.006Z,101650.77
2018-08-03T02:16:53.748Z,101650.13
2018-08-03T02:19:22.374Z,101656.57
2018-08-03T02:21:50.941Z,101655.83
2018-08-03T02:24:19.599Z,101654.67
2018-08-03T02:26:48.181Z,101664.97
2018-08-03T02:29:17.686Z,101665.15
2018-08-03T02:31:46.291Z,101674.25
2018-08-03T02:34:14.795Z,101662.84
2018-08-03T02:36:43.335Z,101658.62
2018-08-03T02:39:12.983Z,101641.89
2018-08-03T02:41:41.626Z,101641.11
2018-08-03T02:44:10.871Z,101638.45
2018-08-03T02:46:39.447Z,101650.81
2018-08-03T02:49:08.208Z,101648.15
2018-08-03T02:51:36.723Z,101654.34
2018-08-03T02:54:05.287Z,101662.43
2018-08-03T02:56:33.786Z,101665.09
2018-08-03T02:59:02.484Z,101662.34
2018-08-03T03:01:31.726Z,101658.80
2018-08-03T03:04:00.409Z,101521.36
2018-08-03T03:06:28.891Z,101660.55
2018-08-03T03:08:57.506Z,101662.80
2018-08-03T03:11:26.155Z,101656.73
2018-08-03T03:13:54.666Z,101647.95
2018-08-03T03:16:23.271Z,101645.84
2018-08-03T03:18:51.904Z,101658.33
2018-08-03T03:21:20.590Z,101651.17
2018-08-03T03:23:49.197Z,101652.05
2018-08-03T03:26:17.771Z,101652.13
2018-08-03T03:28:46.442Z,101650.43
2018-08-03T03:31:15.043Z,101651.76
2018-08-03T03:33:43.654Z,101641.94
2018-08-03T03:36:12.393Z,101643.27
2018-08-03T03:38:40.976Z,101630.81
2018-08-03T03:41:09.591Z,101626.36
2018-08-03T03:43:38.193Z,101628.93
2018-08-03T03:46:07.667Z,101620.94
2018-08-03T03:48:36.370Z,101548.59
2018-08-03T03:51:05.672Z,101616.35
2018-08-03T03:53:34.317Z,101620.16
2018-08-03T03:56:02.819Z,101630.27
2018-08-03T03:58:31.379Z,101631.97
2018-08-03T04:00:59.998Z,101630.55
2018-08-03T04:03:28.588Z,101629.13
2018-08-03T04:05:57.188Z,101633.81
2018-08-03T04:08:25.816Z,101631.05
2018-08-03T04:10:54.433Z,101631.64
2018-08-03T04:13:23.039Z,101630.09
2018-08-03T04:15:51.664Z,101629.72
2018-08-03T04:18:21.783Z,101631.09
2018-08-03T04:20:51.446Z,101615.92
2018-08-03T04:23:20.384Z,101626.14
2018-08-03T04:25:48.968Z,101625.38
2018-08-03T04:28:17.662Z,101628.05
2018-08-03T04:30:46.238Z,101619.02
2018-08-03T04:33:15.080Z,101627.56
2018-08-03T04:35:43.654Z,101620.41
2018-08-03T04:38:12.168Z,101624.79
2018-08-03T04:40:40.770Z,101629.91
2018-08-03T04:43:09.455Z,101628.95
2018-08-03T04:45:38.038Z,101618.13
2018-08-03T04:48:06.771Z,101622.58
2018-08-03T04:50:35.409Z,101619.83
2018-08-03T04:53:04.095Z,101618.44
2018-08-03T04:55:32.707Z,101614.41
2018-08-03T04:58:01.363Z,101609.56
2018-08-03T05:00:30.039Z,101606.98
2018-08-03T05:02:58.631Z,101606.51
2018-08-03T05:05:27.162Z,101601.86
2018-08-03T05:07:55.692Z,101606.86
2018-08-03T05:10:24.276Z,101603.64
2018-08-03T05:12:52.963Z,101609.21
2018-08-03T05:15:21.677Z,101606.31
2018-08-03T05:17:50.336Z,101612.84
2018-08-03T05:20:19.017Z,101616.67
2018-08-03T05:22:47.600Z,101618.58
2018-08-03T05:25:16.285Z,101619.30
2018-08-03T05:27:44.971Z,101625.56
2018-08-03T05:30:13.561Z,101628.91
2018-08-03T05:32:42.167Z,101627.95
2018-08-03T05:35:10.822Z,101622.05
2018-08-03T05:37:39.509Z,101626.72
2018-08-03T05:40:08.858Z,101628.35
2018-08-03T05:42:37.604Z,101621.94
2018-08-03T05:45:07.028Z,101616.83
2018-08-03T05:47:35.685Z,101621.48
2018-08-03T05:50:05.123Z,101620.03
2018-08-03T05:52:33.773Z,101623.98
2018-08-03T05:55:02.353Z,101606.30
2018-08-03T05:57:30.935Z,101613.88
2018-08-03T05:59:59.830Z,101614.98
2018-08-03T06:02:43.051Z,101610.27
2018-08-03T06:05:11.580Z,101618.33
2018-08-03T06:07:40.735Z,101620.66
2018-08-03T06:10:09.674Z,101609.06
2018-08-03T06:12:38.305Z,101615.05
2018-08-03T06:15:08.867Z,101603.78
2018-08-03T06:17:37.986Z,101605.60
2018-08-03T06:20:07.799Z,101613.04
2018-08-03T06:22:36.345Z,101613.88
2018-08-03T06:25:05.598Z,101609.00
2018-08-03T06:27:34.578Z,101606.17
2018-08-03T06:30:03.170Z,101600.70
2018-08-03T06:32:31.779Z,101603.24
2018-08-03T06:35:00.294Z,101604.81
2018-08-03T06:37:28.949Z,101603.09
2018-08-03T06:39:57.528Z,101597.45
2018-08-03T06:42:26.093Z,101597.55
2018-08-03T06:44:54.797Z,101592.41
2018-08-03T06:47:23.484Z,101593.84
2018-08-03T06:49:52.027Z,101589.94
2018-08-03T06:52:20.754Z,101588.33
2018-08-03T06:54:49.380Z,101597.10
2018-08-03T06:57:18.123Z,101591.56
2018-08-03T06:59:46.812Z,101589.34
2018-08-03T07:02:15.391Z,101600.84
2018-08-03T07:04:44.082Z,101586.39
2018-08-03T07:07:12.725Z,101591.52
2018-08-03T07:09:41.445Z,101591.72
2018-08-03T07:12:10.130Z,101594.85
2018-08-03T07:14:38.777Z,101593.40
2018-08-03T07:17:07.398Z,101586.23
2018-08-03T07:19:36.023Z,101588.55
2018-08-03T07:22:04.667Z,101586.06
2018-08-03T07:24:33.249Z,101587.95
2018-08-03T07:27:01.948Z,101576.09
2018-08-03T07:29:30.658Z,101577.17
2018-08-03T07:31:59.221Z,101568.81
2018-08-03T07:34:27.888Z,101572.13
2018-08-03T07:36:56.461Z,101575.28
2018-08-03T07:39:25.068Z,101585.52
2018-08-03T07:41:53.742Z,101578.26
2018-08-03T07:44:22.332Z,101584.00
2018-08-03T07:46:53.138Z,101590.01
2018-08-03T07:49:21.741Z,101593.08
2018-08-03T07:51:50.344Z,101594.50
2018-08-03T07:54:18.976Z,101589.19
2018-08-03T07:56:47.591Z,101597.17
2018-08-03T07:59:16.277Z,101595.28
2018-08-03T08:01:44.778Z,101592.72
2018-08-03T08:04:13.386Z,101596.34
2018-08-03T08:06:42.127Z,101585.42
2018-08-03T08:09:12.144Z,101583.31
2018-08-03T08:11:41.491Z,101576.44
2018-08-03T08:14:10.231Z,101583.24
2018-08-03T08:16:38.815Z,101583.52
2018-08-03T08:19:07.604Z,101588.36
2018-08-03T08:21:36.272Z,101593.47
2018-08-03T08:24:04.870Z,101585.73
2018-08-03T08:26:33.381Z,101588.45
2018-08-03T08:29:02.003Z,101583.56
2018-08-03T08:31:30.785Z,101584.98
2018-08-03T08:33:59.435Z,101575.87
2018-08-03T08:36:28.297Z,101586.29
2018-08-03T08:38:56.823Z,101590.59
2018-08-03T08:41:25.462Z,101599.99
2018-08-03T08:43:54.260Z,101603.24
2018-08-03T08:46:22.730Z,101599.83
2018-08-03T08:48:51.417Z,101606.77
2018-08-03T08:51:19.919Z,101606.63
2018-08-03T08:53:48.684Z,101602.58
2018-08-03T08:56:18.086Z,101608.95
2018-08-03T08:58:47.038Z,101602.33
2018-08-03T09:01:15.693Z,101597.27
2018-08-03T09:03:44.348Z,101592.06
2018-08-03T09:06:12.874Z,101601.72
2018-08-03T09:08:41.513Z,101588.21
2018-08-03T09:11:10.345Z,101588.34
2018-08-03T09:13:38.966Z,101594.59
2018-08-03T09:16:07.940Z,101584.12
2018-08-03T09:18:36.511Z,101581.08
2018-08-03T09:21:05.174Z,101587.16
2018-08-03T09:23:33.932Z,101583.05
2018-08-03T09:26:02.926Z,101582.89
2018-08-03T09:28:31.768Z,101585.98
2018-08-03T09:31:00.404Z,101575.84
2018-08-03T09:33:28.923Z,101583.02
2018-08-03T09:35:57.667Z,101585.23
2018-08-03T09:38:26.301Z,101583.42
2018-08-03T09:40:54.903Z,101582.41
2018-08-03T09:43:23.561Z,101573.02
2018-08-03T09:45:52.202Z,101584.33
2018-08-03T09:48:20.800Z,101580.70
2018-08-03T09:50:49.311Z,101590.93
2018-08-03T09:53:17.895Z,101579.59
2018-08-03T09:55:46.535Z,101576.58
2018-08-03T09:58:15.219Z,101567.59
2018-08-03T10:00:48.987Z,101573.01
2018-08-03T10:03:17.528Z,101573.98
2018-08-03T10:05:46.230Z,101571.12
2018-08-03T10:08:14.876Z,101561.19
2018-08-03T10:10:43.563Z,101565.90
2018-08-03T10:13:12.083Z,101566.45
2018-08-03T10:15:40.754Z,101574.72
2018-08-03T10:18:09.254Z,101559.27
2018-08-03T10:20:37.891Z,101568.41
2018-08-03T10:23:06.423Z,101565.31
2018-08-03T10:25:35.068Z,101561.81
2018-08-03T10:28:03.845Z,101562.17
2018-08-03T10:30:33.165Z,101559.44
2018-08-03T10:33:01.932Z,101564.23
2018-08-03T10:35:30.450Z,101542.88
2018-08-03T10:37:59.043Z,101545.63
2018-08-03T10:40:28.297Z,101540.52
2018-08-03T10:42:56.958Z,101541.55
2018-08-03T10:45:25.507Z,101545.34
2018-08-03T10:47:54.145Z,101544.47
2018-08-03T10:50:22.794Z,101535.02
2018-08-03T10:52:51.367Z,101549.56
2018-08-03T10:55:19.999Z,101556.28
2018-08-03T10:57:48.638Z,101539.39
2018-08-03T11:00:29.624Z,101543.45
2018-08-03T11:02:58.802Z,101534.47
2018-08-03T11:05:27.914Z,101531.73
2018-08-03T11:07:56.558Z,101523.70
2018-08-03T11:10:25.113Z,101520.83
2018-08-03T11:12:54.083Z,101528.98
2018-08-03T11:15:22.691Z,101535.73
2018-08-03T11:17:51.683Z,101539.82
2018-08-03T11:20:20.235Z,101528.67
2018-08-03T11:22:48.803Z,101544.25
2018-08-03T11:25:17.534Z,101542.25
2018-08-03T11:27:46.232Z,101534.94
2018-08-03T11:30:14.970Z,101517.03
2018-08-03T11:32:43.544Z,101511.04
2018-08-03T11:35:12.139Z,101515.50
2018-08-03T11:37:40.755Z,101511.16
2018-08-03T11:40:09.698Z,101513.86
2018-08-03T11:42:38.330Z,101506.66
2018-08-03T11:45:08.736Z,101505.95
2018-08-03T11:47:37.795Z,101510.11
2018-08-03T11:50:07.823Z,101508.77
2018-08-03T11:52:36.480Z,101508.73
2018-08-03T11:55:05.046Z,101513.75
2018-08-03T11:57:33.923Z,101514.08
2018-08-03T12:00:02.482Z,101516.16
2018-08-03T12:02:31.091Z,101512.67
2018-08-03T12:05:00.491Z,101510.85
2018-08-03T12:07:28.995Z,101513.80
2018-08-03T12:09:57.657Z,101512.13
2018-08-03T12:12:26.156Z,101515.58
2018-08-03T12:14:55.531Z,101506.73
2018-08-03T12:17:24.142Z,101507.94
2018-08-03T12:19:52.911Z,101496.92
2018-08-03T12:22:21.439Z,101496.55
2018-08-03T12:24:50.078Z,101495.03
2018-08-03T12:27:18.863Z,101488.70
2018-08-03T12:29:47.499Z,101484.16
2018-08-03T12:32:16.167Z,101483.50
2018-08-03T12:34:44.820Z,101488.68
2018-08-03T12:37:13.505Z,101489.08
2018-08-03T12:39:42.127Z,101492.16
2018-08-03T12:42:10.716Z,101487.66
2018-08-03T12:44:39.272Z,101478.34
2018-08-03T12:47:07.983Z,101475.19
2018-08-03T12:49:36.539Z,101473.52
2018-08-03T12:52:05.152Z,101465.02
2018-08-03T12:54:33.839Z,101463.00
2018-08-03T12:57:02.477Z,101458.98
2018-08-03T12:59:31.123Z,101457.30
2018-08-03T13:01:59.666Z,101453.23
2018-08-03T13:04:28.252Z,101451.29
2018-08-03T13:06:56.809Z,101447.56
2018-08-03T13:09:25.593Z,101443.80
2018-08-03T13:11:54.192Z,101446.54
2018-08-03T13:14:22.684Z,101438.41
2018-08-03T13:16:51.302Z,101445.17
2018-08-03T13:19:19.927Z,101446.36
2018-08-03T13:21:48.609Z,101441.13
2018-08-03T13:24:17.117Z,101448.23
2018-08-03T13:26:45.714Z,101438.08
2018-08-03T13:29:14.461Z,101442.84
2018-08-03T13:31:43.146Z,101435.55
2018-08-03T13:34:11.771Z,101428.94
2018-08-03T13:36:40.326Z,101423.86
2018-08-03T13:39:09.444Z,101422.45
2018-08-03T13:41:38.503Z,101424.84
2018-08-03T13:44:07.100Z,101418.74
2018-08-03T13:46:35.696Z,101421.80
2018-08-03T13:49:04.293Z,101428.57
2018-08-03T13:51:32.937Z,101414.68
2018-08-03T13:54:01.553Z,101412.80
2018-08-03T13:56:30.120Z,101423.81
2018-08-03T13:58:58.711Z,101423.81
2018-08-03T14:01:40.379Z,101414.68
2018-08-03T14:04:09.667Z,101418.36
2018-08-03T14:06:38.178Z,101421.41
2018-08-03T14:09:07.787Z,101412.30
2018-08-03T14:11:36.445Z,101402.81
2018-08-03T14:14:05.234Z,101405.50
2018-08-03T14:19:38.050Z,101402.42
2018-08-03T14:22:06.944Z,101397.88
2018-08-03T14:24:35.917Z,101407.88
2018-08-03T14:27:05.301Z,101410.59
2018-08-03T14:29:34.312Z,101404.12
2018-08-03T14:32:03.655Z,101403.45
2018-08-03T14:34:32.215Z,101397.52
2018-08-03T14:37:00.836Z,101397.66
2018-08-03T14:39:29.410Z,101389.16
2018-08-03T14:41:58.046Z,101387.14
2018-08-03T14:44:26.705Z,101390.88
2018-08-03T14:46:55.244Z,101384.95
2018-08-03T14:49:23.999Z,101391.23
2018-08-03T14:51:52.684Z,101396.30
2018-08-03T14:54:21.330Z,101397.98
2018-08-03T14:56:49.991Z,101392.90
2018-08-03T14:59:18.637Z,101394.55
2018-08-03T15:01:48.347Z,101397.42
2018-08-03T15:04:17.034Z,101399.60
2018-08-03T15:06:45.924Z,101399.52
2018-08-03T15:09:14.610Z,101396.77
2018-08-03T15:11:43.235Z,101386.27
2018-08-03T15:14:11.936Z,101385.61
2018-08-03T15:16:40.565Z,101390.73
2018-08-03T15:19:09.686Z,101399.52
2018-08-03T15:21:38.370Z,101405.27
2018-08-03T15:24:06.907Z,101393.89
2018-08-03T15:26:35.570Z,101386.64
2018-08-03T15:29:04.415Z,101385.65
2018-08-03T15:31:32.983Z,101375.67
2018-08-03T15:34:01.507Z,101376.08
2018-08-03T15:36:30.146Z,101372.54
2018-08-03T15:38:58.729Z,101372.41
2018-08-03T15:41:27.312Z,101369.86
2018-08-03T15:43:56.005Z,101363.42
2018-08-03T15:46:26.738Z,101359.34
2018-08-03T15:48:55.354Z,101358.52
2018-08-03T15:51:23.947Z,101357.30
2018-08-03T15:53:53.197Z,101349.50
2018-08-03T15:56:21.880Z,101357.63
2018-08-03T15:58:50.435Z,101346.80
2018-08-03T16:01:19.096Z,101352.55
2018-08-03T16:03:47.732Z,101354.23
2018-08-03T16:06:16.282Z,101352.84
2018-08-03T16:08:44.849Z,101344.98
2018-08-03T16:11:27.403Z,101341.77
2018-08-03T16:13:56.056Z,101340.92
2018-08-03T16:16:25.570Z,101339.89
2018-08-03T16:18:54.185Z,101333.12
2018-08-03T16:21:22.845Z,101332.75
2018-08-03T16:23:51.578Z,101331.72
2018-08-03T16:26:20.175Z,101323.59
2018-08-03T16:28:48.922Z,101320.73
2018-08-03T16:31:17.815Z,101319.58
2018-08-03T16:33:48.546Z,101317.89
2018-08-03T16:36:17.231Z,101318.42
2018-08-03T16:38:45.879Z,101314.26
2018-08-03T16:41:14.604Z,101311.55
2018-08-03T16:43:43.855Z,101308.09
2018-08-03T16:46:16.068Z,101310.75
2018-08-03T16:48:44.695Z,101305.83
2018-08-03T16:51:16.283Z,101307.14
2018-08-03T16:53:47.653Z,101310.66
2018-08-03T16:56:19.187Z,101305.56
2018-08-03T16:58:48.915Z,101301.67
2018-08-03T17:01:17.546Z,101302.48
2018-08-03T17:03:48.128Z,101298.37
2018-08-03T17:06:19.185Z,101293.77
2018-08-03T17:08:58.094Z,101301.37
2018-08-03T17:11:28.061Z,101302.23
2018-08-03T17:16:57.379Z,101298.33
2018-08-03T17:19:29.034Z,101300.70
2018-08-03T17:22:07.539Z,101296.97
2018-08-03T17:24:39.358Z,101302.05
2018-08-03T17:27:09.450Z,101294.91
2018-08-03T17:29:39.783Z,101287.48
2018-08-03T17:32:09.721Z,101296.24
2018-08-03T17:34:39.221Z,101293.80
2018-08-03T17:37:07.904Z,101298.48
2018-08-03T17:42:18.946Z,101290.36
2018-08-03T17:44:49.406Z,101285.05
2018-08-03T17:47:18.009Z,101288.25
2018-08-03T17:49:46.692Z,101282.89
2018-08-03T17:52:15.326Z,101282.19
2018-08-03T17:54:43.884Z,101273.69
2018-08-03T17:57:12.382Z,101275.41
2018-08-03T17:59:40.970Z,101268.98
2018-08-03T18:02:09.526Z,101268.47
2018-08-03T18:04:38.394Z,101267.16
2018-08-03T18:07:07.030Z,101268.44
2018-08-03T18:09:35.615Z,101269.41
2018-08-03T18:12:04.921Z,101267.95
2018-08-03T18:14:33.506Z,101262.19
2018-08-03T18:17:02.040Z,101273.22
2018-08-03T18:19:30.812Z,101265.06
2018-08-03T18:21:59.395Z,101261.97
2018-08-03T18:24:27.931Z,101256.72
2018-08-03T18:26:56.562Z,101255.83
2018-08-03T18:29:25.091Z,101258.94
2018-08-03T18:31:53.734Z,101257.15
2018-08-03T18:34:22.390Z,101257.27
2018-08-03T18:36:50.997Z,101256.16
2018-08-03T18:39:19.683Z,101255.38
2018-08-03T18:41:48.265Z,101253.93
2018-08-03T18:44:16.952Z,101255.20
2018-08-03T18:46:45.534Z,101257.83
2018-08-03T18:49:14.059Z,101257.80
2018-08-03T18:51:42.740Z,101260.45
2018-08-03T18:54:11.384Z,101257.34
2018-08-03T18:56:40.072Z,101255.88
2018-08-03T18:59:08.910Z,101242.98
2018-08-03T19:01:37.491Z,101251.71
2018-08-03T19:04:06.226Z,101252.72
2018-08-03T19:06:34.811Z,101249.95
2018-08-03T19:09:03.703Z,101252.65
2018-08-03T19:11:32.200Z,101249.19
2018-08-03T19:14:01.064Z,101254.59
2018-08-03T19:16:29.711Z,101259.00
2018-08-03T19:18:58.215Z,101249.34
2018-08-03T19:21:26.753Z,101247.09
2018-08-03T19:23:55.407Z,101247.00
2018-08-03T19:26:24.099Z,101242.23
2018-08-03T19:28:52.776Z,101242.19
2018-08-03T19:31:21.584Z,101247.24
2018-08-03T19:33:50.133Z,101247.88
2018-08-03T19:36:18.735Z,101236.33
2018-08-03T19:38:47.418Z,101238.45
2018-08-03T19:41:15.998Z,101244.66
2018-08-03T19:43:44.567Z,101237.49
2018-08-03T19:46:13.161Z,101245.52
2018-08-03T19:48:41.847Z,101238.70
2018-08-03T19:51:10.539Z,101238.96
2018-08-03T19:53:39.319Z,101237.56
2018-08-03T19:56:08.006Z,101239.86
2018-08-03T19:58:36.837Z,101238.14
2018-08-03T20:01:05.482Z,101240.14
2018-08-03T20:03:34.161Z,101238.08
2018-08-03T20:06:02.686Z,101226.83
2018-08-03T20:08:31.328Z,101227.66
2018-08-03T20:11:00.258Z,101232.35
2018-08-03T20:13:29.727Z,101221.58
2018-08-03T20:15:58.407Z,101218.17
2018-08-03T20:18:26.990Z,101198.61
2018-08-03T20:20:55.675Z,101201.30
2018-08-03T20:23:25.107Z,101197.26
2018-08-03T20:25:53.704Z,101195.86
2018-08-03T20:28:22.347Z,101195.52
2018-08-03T20:30:50.979Z,101197.16
2018-08-03T20:33:19.562Z,101200.47
2018-08-03T20:35:48.094Z,101208.83
2018-08-03T20:38:16.828Z,101203.73
2018-08-03T20:40:45.511Z,101202.34
2018-08-03T20:43:14.049Z,101190.56
2018-08-03T20:45:42.630Z,101197.78
2018-08-03T20:48:11.485Z,101195.31
2018-08-03T20:50:47.932Z,101195.95
2018-08-03T20:53:16.575Z,101195.23
2018-08-03T20:55:45.099Z,101179.94
2018-08-03T20:58:13.739Z,101190.13
2018-08-03T21:00:42.372Z,101189.27
2018-08-03T21:03:11.005Z,101189.41
2018-08-03T21:05:39.604Z,101185.33
2018-08-03T21:08:08.273Z,101187.59
2018-08-03T21:10:36.798Z,101183.20
2018-08-03T21:13:05.318Z,101184.46
2018-08-03T21:15:33.920Z,101184.75
2018-08-03T21:18:03.014Z,101181.71
2018-08-03T21:20:31.491Z,101181.38
2018-08-03T21:23:00.000Z,101180.17
2018-08-03T21:25:28.615Z,101177.24
2018-08-03T21:27:57.346Z,101174.55
2018-08-03T21:30:25.931Z,101160.98
2018-08-03T21:32:54.612Z,101168.11
2018-08-03T21:35:23.203Z,101159.00
2018-08-03T21:37:52.088Z,101160.98
2018-08-03T21:40:20.723Z,101155.88
2018-08-03T21:42:49.243Z,101162.89
2018-08-03T21:45:17.838Z,101153.77
2018-08-03T21:47:46.343Z,101154.39
2018-08-03T21:50:14.926Z,101143.42
2018-08-03T21:52:43.646Z,101146.60
2018-08-03T21:55:12.270Z,101141.87
2018-08-03T21:57:40.878Z,101143.81
2018-08-03T22:00:13.123Z,101140.41
2018-08-03T22:02:41.731Z,101131.27
2018-08-03T22:05:10.244Z,101122.80
2018-08-03T22:07:38.827Z,101118.67
2018-08-03T22:10:07.821Z,101120.96
2018-08-03T22:12:36.471Z,101127.31
2018-08-03T22:15:05.376Z,101123.27
2018-08-03T22:17:34.595Z,101121.24
2018-08-03T22:20:03.219Z,101121.53
2018-08-03T22:22:32.054Z,101136.31
2018-08-03T22:25:00.635Z,101128.25
2018-08-03T22:27:29.396Z,101124.56
2018-08-03T22:29:58.066Z,101134.03
2018-08-03T22:32:26.766Z,101129.03
2018-08-03T22:34:55.294Z,101112.17
2018-08-03T22:37:23.838Z,101120.02
2018-08-03T22:39:52.423Z,101123.43
2018-08-03T22:42:21.181Z,101124.15
2018-08-03T22:44:49.867Z,101116.77
2018-08-03T22:47:18.371Z,101113.93
2018-08-03T22:49:47.010Z,101120.17
2018-08-03T22:52:15.650Z,101112.39
2018-08-03T22:54:44.198Z,101127.52
2018-08-03T22:57:12.781Z,101120.73
2018-08-03T22:59:41.278Z,101120.96
2018-08-03T23:02:09.906Z,101120.53
2018-08-03T23:04:39.452Z,101120.88
2018-08-03T23:07:08.498Z,101133.13
2018-08-03T23:09:37.071Z,101124.72
2018-08-03T23:12:05.783Z,101133.75
2018-08-03T23:14:34.356Z,101128.65
2018-08-03T23:17:03.036Z,101126.38
2018-08-03T23:19:32.381Z,101124.05
2018-08-03T23:22:01.010Z,101118.67
2018-08-03T23:24:30.674Z,101117.59
2018-08-03T23:26:59.174Z,101117.59
2018-08-03T23:29:27.835Z,101121.16
2018-08-03T23:31:56.799Z,101122.91
2018-08-03T23:34:25.362Z,101125.08
2018-08-03T23:36:53.895Z,101122.39
2018-08-03T23:39:22.683Z,101123.25
2018-08-03T23:41:52.291Z,101123.98
2018-08-03T23:44:20.893Z,101128.28
2018-08-03T23:46:49.440Z,101122.53
2018-08-03T23:49:17.986Z,101126.22
2018-08-03T23:51:46.519Z,101129.53
2018-08-03T23:54:15.205Z,101118.44
2018-08-03T23:56:43.788Z,101120.05
2018-08-03T23:59:12.425Z,101108.30
